sensor_id;sensor_type;location;lat;lon;timestamp;P1;durP1;ratioP1;P2;durP2;ratioP2
77326;SDS011;66399;52.322;20.980;2023-03-01T00:03:30;19.10;;;6.70;;
77326;SDS011;66399;52.322;20.980;2023-03-01T00:07:35;19.70;;;6.90;;
77326;SDS011;66399;52.322;20.980;2023-03-01T00:11:41;17.80;;;6.80;;
77326;SDS011;66399;52.322;20.980;2023-03-01T00:15:46;24.50;;;8.00;;
77326;SDS011;66399;52.322;20.980;2023-03-01T00:19:51;21.70;;;7.50;;
77326;SDS011;66399;52.322;20.980;2023-03-01T00:23:57;20.10;;;6.90;;
77326;SDS011;66399;52.322;20.980;2023-03-01T00:28:02;16.50;;;5.80;;
77326;SDS011;66399;52.322;20.980;2023-03-01T00:32:07;20.00;;;7.10;;
77326;SDS011;66399;52.322;20.980;2023-03-01T00:36:13;22.40;;;8.00;;
77326;SDS011;66399;52.322;20.980;2023-03-01T00:40:19;19.90;;;7.40;;
77326;SDS011;66399;52.322;20.980;2023-03-01T00:44:24;22.90;;;8.30;;
77326;SDS011;66399;52.322;20.980;2023-03-01T00:48:29;11.20;;;4.10;;
77326;SDS011;66399;52.322;20.980;2023-03-01T00:52:35;23.40;;;7.50;;
77326;SDS011;66399;52.322;20.980;2023-03-01T00:56:40;18.90;;;7.00;;
77326;SDS011;66399;52.322;20.980;2023-03-01T01:00:45;20.00;;;7.10;;
77326;SDS011;66399;52.322;20.980;2023-03-01T01:04:51;26.00;;;8.50;;
77326;SDS011;66399;52.322;20.980;2023-03-01T01:08:56;23.50;;;7.70;;
77326;SDS011;66399;52.322;20.980;2023-03-01T01:13:02;20.50;;;6.90;;
77326;SDS011;66399;52.322;20.980;2023-03-01T01:17:07;9.20;;;3.50;;
77326;SDS011;66399;52.322;20.980;2023-03-01T01:21:13;17.30;;;6.90;;
77326;SDS011;66399;52.322;20.980;2023-03-01T01:25:19;23.30;;;7.50;;
77326;SDS011;66399;52.322;20.980;2023-03-01T01:29:24;18.80;;;6.10;;
77326;SDS011;66399;52.322;20.980;2023-03-01T01:33:29;17.10;;;6.80;;
77326;SDS011;66399;52.322;20.980;2023-03-01T01:37:35;18.30;;;7.10;;
77326;SDS011;66399;52.322;20.980;2023-03-01T01:41:41;21.40;;;7.50;;
77326;SDS011;66399;52.322;20.980;2023-03-01T01:45:46;15.10;;;6.50;;
77326;SDS011;66399;52.322;20.980;2023-03-01T01:49:53;13.60;;;5.40;;
77326;SDS011;66399;52.322;20.980;2023-03-01T01:53:59;24.00;;;9.10;;
77326;SDS011;66399;52.322;20.980;2023-03-01T01:58:05;29.10;;;8.60;;
77326;SDS011;66399;52.322;20.980;2023-03-01T02:02:12;23.60;;;7.90;;
77326;SDS011;66399;52.322;20.980;2023-03-01T02:06:19;20.60;;;7.30;;
77326;SDS011;66399;52.322;20.980;2023-03-01T02:10:25;24.70;;;8.50;;
77326;SDS011;66399;52.322;20.980;2023-03-01T02:14:32;16.00;;;6.00;;
77326;SDS011;66399;52.322;20.980;2023-03-01T02:18:38;22.80;;;8.70;;
77326;SDS011;66399;52.322;20.980;2023-03-01T02:22:44;20.10;;;7.50;;
77326;SDS011;66399;52.322;20.980;2023-03-01T02:26:51;20.30;;;8.00;;
77326;SDS011;66399;52.322;20.980;2023-03-01T02:30:57;21.90;;;8.20;;
77326;SDS011;66399;52.322;20.980;2023-03-01T02:35:20;25.20;;;8.00;;
77326;SDS011;66399;52.322;20.980;2023-03-01T02:39:26;23.20;;;7.50;;
77326;SDS011;66399;52.322;20.980;2023-03-01T02:43:33;20.60;;;7.20;;
77326;SDS011;66399;52.322;20.980;2023-03-01T02:47:39;23.60;;;6.00;;
77326;SDS011;66399;52.322;20.980;2023-03-01T02:51:45;24.10;;;8.20;;
77326;SDS011;66399;52.322;20.980;2023-03-01T02:55:53;20.80;;;7.30;;
77326;SDS011;66399;52.322;20.980;2023-03-01T02:59:59;22.40;;;7.90;;
77326;SDS011;66399;52.322;20.980;2023-03-01T03:04:12;23.90;;;8.00;;
77326;SDS011;66399;52.322;20.980;2023-03-01T03:08:20;16.30;;;6.40;;
77326;SDS011;66399;52.322;20.980;2023-03-01T03:12:28;24.50;;;8.50;;
77326;SDS011;66399;52.322;20.980;2023-03-01T03:16:33;24.40;;;7.70;;
77326;SDS011;66399;52.322;20.980;2023-03-01T03:20:39;18.90;;;6.70;;
77326;SDS011;66399;52.322;20.980;2023-03-01T03:24:44;26.10;;;8.60;;
77326;SDS011;66399;52.322;20.980;2023-03-01T03:28:49;20.70;;;7.30;;
77326;SDS011;66399;52.322;20.980;2023-03-01T03:32:54;20.20;;;7.30;;
77326;SDS011;66399;52.322;20.980;2023-03-01T03:37:00;19.60;;;6.70;;
77326;SDS011;66399;52.322;20.980;2023-03-01T03:41:06;14.50;;;5.90;;
77326;SDS011;66399;52.322;20.980;2023-03-01T03:49:15;15.90;;;5.40;;
77326;SDS011;66399;52.322;20.980;2023-03-01T03:53:21;15.60;;;5.20;;
77326;SDS011;66399;52.322;20.980;2023-03-01T03:57:26;22.70;;;8.20;;
77326;SDS011;66399;52.322;20.980;2023-03-01T04:01:32;20.80;;;7.70;;
77326;SDS011;66399;52.322;20.980;2023-03-01T04:05:37;12.70;;;4.10;;
77326;SDS011;66399;52.322;20.980;2023-03-01T04:09:43;27.20;;;8.90;;
77326;SDS011;66399;52.322;20.980;2023-03-01T04:13:48;17.30;;;6.30;;
77326;SDS011;66399;52.322;20.980;2023-03-01T04:17:54;19.30;;;6.60;;
77326;SDS011;66399;52.322;20.980;2023-03-01T04:21:59;24.00;;;7.00;;
77326;SDS011;66399;52.322;20.980;2023-03-01T04:26:11;17.50;;;6.70;;
77326;SDS011;66399;52.322;20.980;2023-03-01T04:30:16;19.30;;;6.50;;
77326;SDS011;66399;52.322;20.980;2023-03-01T04:34:22;20.60;;;6.80;;
77326;SDS011;66399;52.322;20.980;2023-03-01T04:38:27;17.20;;;6.70;;
77326;SDS011;66399;52.322;20.980;2023-03-01T04:42:32;19.00;;;7.00;;
77326;SDS011;66399;52.322;20.980;2023-03-01T04:46:37;19.20;;;6.10;;
77326;SDS011;66399;52.322;20.980;2023-03-01T04:50:43;13.40;;;4.70;;
77326;SDS011;66399;52.322;20.980;2023-03-01T04:54:48;25.30;;;8.40;;
77326;SDS011;66399;52.322;20.980;2023-03-01T04:58:54;25.30;;;7.90;;
77326;SDS011;66399;52.322;20.980;2023-03-01T05:03:00;19.00;;;8.20;;
77326;SDS011;66399;52.322;20.980;2023-03-01T05:07:05;8.60;;;3.60;;
77326;SDS011;66399;52.322;20.980;2023-03-01T05:11:11;12.30;;;4.50;;
77326;SDS011;66399;52.322;20.980;2023-03-01T05:15:16;25.00;;;8.70;;
77326;SDS011;66399;52.322;20.980;2023-03-01T05:19:22;26.60;;;8.60;;
77326;SDS011;66399;52.322;20.980;2023-03-01T05:23:27;12.70;;;5.30;;
77326;SDS011;66399;52.322;20.980;2023-03-01T05:27:32;15.50;;;6.70;;
77326;SDS011;66399;52.322;20.980;2023-03-01T05:31:37;8.90;;;3.20;;
77326;SDS011;66399;52.322;20.980;2023-03-01T05:35:43;25.10;;;8.00;;
77326;SDS011;66399;52.322;20.980;2023-03-01T05:39:49;19.90;;;6.70;;
77326;SDS011;66399;52.322;20.980;2023-03-01T05:47:59;25.80;;;8.30;;
77326;SDS011;66399;52.322;20.980;2023-03-01T05:52:04;27.10;;;9.80;;
77326;SDS011;66399;52.322;20.980;2023-03-01T05:56:09;23.60;;;8.00;;
77326;SDS011;66399;52.322;20.980;2023-03-01T06:00:15;28.50;;;8.50;;
77326;SDS011;66399;52.322;20.980;2023-03-01T06:08:25;23.00;;;6.90;;
77326;SDS011;66399;52.322;20.980;2023-03-01T06:12:31;30.50;;;9.00;;
77326;SDS011;66399;52.322;20.980;2023-03-01T06:16:37;26.00;;;8.80;;
77326;SDS011;66399;52.322;20.980;2023-03-01T06:20:42;24.10;;;8.50;;
77326;SDS011;66399;52.322;20.980;2023-03-01T06:24:47;23.80;;;8.40;;
77326;SDS011;66399;52.322;20.980;2023-03-01T06:28:52;24.90;;;8.70;;
77326;SDS011;66399;52.322;20.980;2023-03-01T06:32:58;22.10;;;8.30;;
77326;SDS011;66399;52.322;20.980;2023-03-01T06:37:05;25.00;;;9.20;;
77326;SDS011;66399;52.322;20.980;2023-03-01T06:41:10;23.80;;;8.40;;
77326;SDS011;66399;52.322;20.980;2023-03-01T06:45:16;27.60;;;9.60;;
77326;SDS011;66399;52.322;20.980;2023-03-01T06:49:22;26.00;;;8.60;;
77326;SDS011;66399;52.322;20.980;2023-03-01T06:53:27;19.90;;;6.90;;
77326;SDS011;66399;52.322;20.980;2023-03-01T06:57:33;21.70;;;8.70;;
77326;SDS011;66399;52.322;20.980;2023-03-01T07:01:38;21.40;;;7.90;;
77326;SDS011;66399;52.322;20.980;2023-03-01T07:05:43;20.00;;;5.80;;
77326;SDS011;66399;52.322;20.980;2023-03-01T07:09:49;28.20;;;9.10;;
77326;SDS011;66399;52.322;20.980;2023-03-01T07:13:54;31.60;;;10.50;;
77326;SDS011;66399;52.322;20.980;2023-03-01T07:18:00;23.80;;;9.60;;
77326;SDS011;66399;52.322;20.980;2023-03-01T07:22:05;20.30;;;7.20;;
77326;SDS011;66399;52.322;20.980;2023-03-01T07:26:13;21.50;;;8.50;;
77326;SDS011;66399;52.322;20.980;2023-03-01T07:30:19;11.00;;;4.70;;
77326;SDS011;66399;52.322;20.980;2023-03-01T07:34:24;22.60;;;7.80;;
77326;SDS011;66399;52.322;20.980;2023-03-01T07:38:29;19.70;;;7.30;;
77326;SDS011;66399;52.322;20.980;2023-03-01T07:42:35;20.20;;;7.00;;
77326;SDS011;66399;52.322;20.980;2023-03-01T07:46:40;23.10;;;8.00;;
77326;SDS011;66399;52.322;20.980;2023-03-01T07:50:45;21.80;;;9.40;;
77326;SDS011;66399;52.322;20.980;2023-03-01T07:54:51;23.40;;;7.70;;
77326;SDS011;66399;52.322;20.980;2023-03-01T07:58:56;17.20;;;6.80;;
77326;SDS011;66399;52.322;20.980;2023-03-01T08:03:04;21.50;;;8.20;;
77326;SDS011;66399;52.322;20.980;2023-03-01T08:07:10;18.90;;;7.00;;
77326;SDS011;66399;52.322;20.980;2023-03-01T08:11:15;23.30;;;8.10;;
77326;SDS011;66399;52.322;20.980;2023-03-01T08:15:20;15.40;;;6.70;;
77326;SDS011;66399;52.322;20.980;2023-03-01T08:19:26;24.00;;;8.40;;
77326;SDS011;66399;52.322;20.980;2023-03-01T08:23:32;20.80;;;8.90;;
77326;SDS011;66399;52.322;20.980;2023-03-01T08:27:37;13.00;;;5.50;;
77326;SDS011;66399;52.322;20.980;2023-03-01T08:31:42;15.00;;;6.00;;
77326;SDS011;66399;52.322;20.980;2023-03-01T08:35:48;16.50;;;6.50;;
77326;SDS011;66399;52.322;20.980;2023-03-01T08:39:53;14.40;;;5.60;;
77326;SDS011;66399;52.322;20.980;2023-03-01T08:43:59;17.30;;;6.50;;
77326;SDS011;66399;52.322;20.980;2023-03-01T08:48:05;15.80;;;5.30;;
77326;SDS011;66399;52.322;20.980;2023-03-01T08:52:11;7.70;;;3.50;;
77326;SDS011;66399;52.322;20.980;2023-03-01T08:56:17;15.20;;;6.20;;
77326;SDS011;66399;52.322;20.980;2023-03-01T09:00:23;9.50;;;5.10;;
77326;SDS011;66399;52.322;20.980;2023-03-01T09:04:28;17.80;;;7.70;;
77326;SDS011;66399;52.322;20.980;2023-03-01T09:08:35;14.60;;;6.20;;
77326;SDS011;66399;52.322;20.980;2023-03-01T09:12:41;15.70;;;6.70;;
77326;SDS011;66399;52.322;20.980;2023-03-01T09:16:46;17.70;;;7.10;;
77326;SDS011;66399;52.322;20.980;2023-03-01T09:20:51;14.10;;;6.40;;
77326;SDS011;66399;52.322;20.980;2023-03-01T09:24:58;12.00;;;5.20;;
77326;SDS011;66399;52.322;20.980;2023-03-01T09:29:04;16.10;;;7.40;;
77326;SDS011;66399;52.322;20.980;2023-03-01T09:33:09;14.50;;;6.60;;
77326;SDS011;66399;52.322;20.980;2023-03-01T09:37:18;16.60;;;7.30;;
77326;SDS011;66399;52.322;20.980;2023-03-01T09:41:26;16.10;;;7.10;;
77326;SDS011;66399;52.322;20.980;2023-03-01T09:45:34;11.20;;;5.10;;
77326;SDS011;66399;52.322;20.980;2023-03-01T09:49:40;13.80;;;5.30;;
77326;SDS011;66399;52.322;20.980;2023-03-01T09:53:46;15.60;;;6.40;;
77326;SDS011;66399;52.322;20.980;2023-03-01T09:57:53;15.30;;;7.10;;
77326;SDS011;66399;52.322;20.980;2023-03-01T10:02:01;13.60;;;6.90;;
77326;SDS011;66399;52.322;20.980;2023-03-01T10:06:10;16.30;;;7.00;;
77326;SDS011;66399;52.322;20.980;2023-03-01T10:10:36;18.70;;;7.30;;
77326;SDS011;66399;52.322;20.980;2023-03-01T10:14:43;15.90;;;6.30;;
77326;SDS011;66399;52.322;20.980;2023-03-01T10:18:53;12.00;;;5.50;;
77326;SDS011;66399;52.322;20.980;2023-03-01T10:23:00;11.30;;;5.40;;
77326;SDS011;66399;52.322;20.980;2023-03-01T10:27:07;16.80;;;5.30;;
77326;SDS011;66399;52.322;20.980;2023-03-01T10:31:14;14.50;;;5.10;;
77326;SDS011;66399;52.322;20.980;2023-03-01T10:35:23;12.70;;;5.90;;
77326;SDS011;66399;52.322;20.980;2023-03-01T10:39:29;7.70;;;4.30;;
77326;SDS011;66399;52.322;20.980;2023-03-01T10:43:43;11.20;;;4.30;;
77326;SDS011;66399;52.322;20.980;2023-03-01T10:47:48;14.20;;;5.80;;
77326;SDS011;66399;52.322;20.980;2023-03-01T10:52:16;8.90;;;4.40;;
77326;SDS011;66399;52.322;20.980;2023-03-01T10:56:22;14.50;;;4.60;;
77326;SDS011;66399;52.322;20.980;2023-03-01T11:00:29;12.30;;;4.70;;
77326;SDS011;66399;52.322;20.980;2023-03-01T11:04:34;7.60;;;3.70;;
77326;SDS011;66399;52.322;20.980;2023-03-01T11:08:41;10.60;;;4.50;;
77326;SDS011;66399;52.322;20.980;2023-03-01T11:12:46;9.10;;;3.80;;
77326;SDS011;66399;52.322;20.980;2023-03-01T11:16:59;11.60;;;5.00;;
77326;SDS011;66399;52.322;20.980;2023-03-01T11:21:05;8.60;;;4.20;;
77326;SDS011;66399;52.322;20.980;2023-03-01T11:29:16;12.50;;;5.60;;
77326;SDS011;66399;52.322;20.980;2023-03-01T11:33:28;7.30;;;3.30;;
77326;SDS011;66399;52.322;20.980;2023-03-01T11:37:38;13.00;;;5.40;;
77326;SDS011;66399;52.322;20.980;2023-03-01T11:41:45;10.40;;;4.30;;
77326;SDS011;66399;52.322;20.980;2023-03-01T11:46:02;12.00;;;5.50;;
77326;SDS011;66399;52.322;20.980;2023-03-01T11:50:20;8.90;;;4.40;;
77326;SDS011;66399;52.322;20.980;2023-03-01T11:54:33;9.10;;;4.10;;
77326;SDS011;66399;52.322;20.980;2023-03-01T12:07:25;11.00;;;5.50;;
77326;SDS011;66399;52.322;20.980;2023-03-01T12:11:36;11.50;;;5.80;;
77326;SDS011;66399;52.322;20.980;2023-03-01T12:19:54;9.60;;;4.10;;
77326;SDS011;66399;52.322;20.980;2023-03-01T12:28:29;15.60;;;6.50;;
77326;SDS011;66399;52.322;20.980;2023-03-01T12:32:40;9.70;;;4.70;;
77326;SDS011;66399;52.322;20.980;2023-03-01T12:36:54;14.10;;;5.90;;
77326;SDS011;66399;52.322;20.980;2023-03-01T12:41:08;12.20;;;6.00;;
77326;SDS011;66399;52.322;20.980;2023-03-01T12:45:26;13.80;;;6.00;;
77326;SDS011;66399;52.322;20.980;2023-03-01T12:49:35;9.10;;;4.50;;
77326;SDS011;66399;52.322;20.980;2023-03-01T12:53:42;13.90;;;5.80;;
77326;SDS011;66399;52.322;20.980;2023-03-01T12:57:51;14.10;;;6.50;;
77326;SDS011;66399;52.322;20.980;2023-03-01T13:02:03;14.50;;;5.60;;
77326;SDS011;66399;52.322;20.980;2023-03-01T13:06:12;15.00;;;7.10;;
77326;SDS011;66399;52.322;20.980;2023-03-01T13:10:21;15.20;;;6.10;;
77326;SDS011;66399;52.322;20.980;2023-03-01T13:14:44;14.50;;;6.30;;
77326;SDS011;66399;52.322;20.980;2023-03-01T13:18:50;14.50;;;6.00;;
77326;SDS011;66399;52.322;20.980;2023-03-01T13:23:11;14.00;;;5.70;;
77326;SDS011;66399;52.322;20.980;2023-03-01T13:27:26;11.70;;;5.70;;
77326;SDS011;66399;52.322;20.980;2023-03-01T13:36:05;11.00;;;5.00;;
77326;SDS011;66399;52.322;20.980;2023-03-01T13:44:35;10.50;;;5.20;;
77326;SDS011;66399;52.322;20.980;2023-03-01T13:48:42;11.90;;;6.00;;
77326;SDS011;66399;52.322;20.980;2023-03-01T13:52:50;11.60;;;6.20;;
77326;SDS011;66399;52.322;20.980;2023-03-01T13:56:56;9.40;;;4.60;;
77326;SDS011;66399;52.322;20.980;2023-03-01T14:01:02;12.60;;;5.70;;
77326;SDS011;66399;52.322;20.980;2023-03-01T14:05:09;12.70;;;6.10;;
77326;SDS011;66399;52.322;20.980;2023-03-01T14:09:16;14.10;;;6.70;;
77326;SDS011;66399;52.322;20.980;2023-03-01T14:13:26;11.40;;;6.40;;
77326;SDS011;66399;52.322;20.980;2023-03-01T14:21:37;11.60;;;5.40;;
77326;SDS011;66399;52.322;20.980;2023-03-01T14:25:47;11.90;;;5.40;;
77326;SDS011;66399;52.322;20.980;2023-03-01T14:29:57;9.20;;;4.40;;
77326;SDS011;66399;52.322;20.980;2023-03-01T14:34:02;12.00;;;5.90;;
77326;SDS011;66399;52.322;20.980;2023-03-01T14:38:19;16.30;;;6.60;;
77326;SDS011;66399;52.322;20.980;2023-03-01T14:42:26;12.90;;;6.40;;
77326;SDS011;66399;52.322;20.980;2023-03-01T14:46:34;13.30;;;6.80;;
77326;SDS011;66399;52.322;20.980;2023-03-01T14:50:41;12.90;;;6.30;;
77326;SDS011;66399;52.322;20.980;2023-03-01T14:54:47;14.20;;;6.00;;
77326;SDS011;66399;52.322;20.980;2023-03-01T14:58:53;11.80;;;5.70;;
77326;SDS011;66399;52.322;20.980;2023-03-01T15:07:02;10.70;;;5.50;;
77326;SDS011;66399;52.322;20.980;2023-03-01T15:11:17;11.70;;;6.10;;
77326;SDS011;66399;52.322;20.980;2023-03-01T15:15:33;10.60;;;6.00;;
77326;SDS011;66399;52.322;20.980;2023-03-01T15:19:39;12.50;;;6.30;;
77326;SDS011;66399;52.322;20.980;2023-03-01T15:27:49;14.00;;;5.40;;
77326;SDS011;66399;52.322;20.980;2023-03-01T15:31:56;12.80;;;6.10;;
77326;SDS011;66399;52.322;20.980;2023-03-01T15:36:03;9.50;;;5.40;;
77326;SDS011;66399;52.322;20.980;2023-03-01T15:40:20;11.00;;;5.70;;
77326;SDS011;66399;52.322;20.980;2023-03-01T15:44:28;16.00;;;6.60;;
77326;SDS011;66399;52.322;20.980;2023-03-01T15:48:46;13.60;;;7.20;;
77326;SDS011;66399;52.322;20.980;2023-03-01T15:52:53;15.10;;;7.40;;
77326;SDS011;66399;52.322;20.980;2023-03-01T15:56:58;18.10;;;6.70;;
77326;SDS011;66399;52.322;20.980;2023-03-01T16:01:07;14.60;;;6.30;;
77326;SDS011;66399;52.322;20.980;2023-03-01T16:05:18;13.70;;;6.70;;
77326;SDS011;66399;52.322;20.980;2023-03-01T16:09:24;17.30;;;7.50;;
77326;SDS011;66399;52.322;20.980;2023-03-01T16:13:30;18.20;;;8.30;;
77326;SDS011;66399;52.322;20.980;2023-03-01T16:17:35;19.00;;;8.90;;
77326;SDS011;66399;52.322;20.980;2023-03-01T16:21:41;16.50;;;8.10;;
77326;SDS011;66399;52.322;20.980;2023-03-01T16:25:47;19.40;;;8.50;;
77326;SDS011;66399;52.322;20.980;2023-03-01T16:29:53;17.50;;;7.70;;
77326;SDS011;66399;52.322;20.980;2023-03-01T16:33:58;16.40;;;8.10;;
77326;SDS011;66399;52.322;20.980;2023-03-01T16:42:08;22.10;;;9.00;;
77326;SDS011;66399;52.322;20.980;2023-03-01T16:46:14;22.50;;;9.10;;
77326;SDS011;66399;52.322;20.980;2023-03-01T16:50:20;23.20;;;10.00;;
77326;SDS011;66399;52.322;20.980;2023-03-01T16:54:25;21.00;;;8.90;;
77326;SDS011;66399;52.322;20.980;2023-03-01T16:58:30;21.70;;;8.80;;
77326;SDS011;66399;52.322;20.980;2023-03-01T17:02:36;17.00;;;9.00;;
77326;SDS011;66399;52.322;20.980;2023-03-01T17:06:41;21.60;;;8.60;;
77326;SDS011;66399;52.322;20.980;2023-03-01T17:10:46;22.80;;;10.20;;
77326;SDS011;66399;52.322;20.980;2023-03-01T17:14:52;20.50;;;10.00;;
77326;SDS011;66399;52.322;20.980;2023-03-01T17:18:57;22.80;;;9.40;;
77326;SDS011;66399;52.322;20.980;2023-03-01T17:23:03;19.80;;;8.10;;
77326;SDS011;66399;52.322;20.980;2023-03-01T17:31:12;20.40;;;8.20;;
77326;SDS011;66399;52.322;20.980;2023-03-01T17:35:18;19.90;;;8.00;;
77326;SDS011;66399;52.322;20.980;2023-03-01T17:39:23;20.20;;;8.10;;
77326;SDS011;66399;52.322;20.980;2023-03-01T17:43:35;18.50;;;7.40;;
77326;SDS011;66399;52.322;20.980;2023-03-01T17:47:40;20.40;;;8.00;;
77326;SDS011;66399;52.322;20.980;2023-03-01T17:51:45;17.10;;;7.40;;
77326;SDS011;66399;52.322;20.980;2023-03-01T17:55:57;18.80;;;7.30;;
77326;SDS011;66399;52.322;20.980;2023-03-01T18:00:04;17.40;;;6.40;;
77326;SDS011;66399;52.322;20.980;2023-03-01T18:04:09;19.80;;;7.30;;
77326;SDS011;66399;52.322;20.980;2023-03-01T18:08:14;20.40;;;7.30;;
77326;SDS011;66399;52.322;20.980;2023-03-01T18:12:20;22.20;;;8.20;;
77326;SDS011;66399;52.322;20.980;2023-03-01T18:16:25;18.20;;;7.20;;
77326;SDS011;66399;52.322;20.980;2023-03-01T18:20:31;22.40;;;7.50;;
77326;SDS011;66399;52.322;20.980;2023-03-01T18:24:37;21.30;;;8.30;;
77326;SDS011;66399;52.322;20.980;2023-03-01T18:28:43;19.70;;;7.40;;
77326;SDS011;66399;52.322;20.980;2023-03-01T18:32:53;20.10;;;7.70;;
77326;SDS011;66399;52.322;20.980;2023-03-01T18:36:59;20.80;;;7.90;;
77326;SDS011;66399;52.322;20.980;2023-03-01T18:41:13;27.40;;;9.40;;
77326;SDS011;66399;52.322;20.980;2023-03-01T18:45:18;19.30;;;7.60;;
77326;SDS011;66399;52.322;20.980;2023-03-01T18:49:24;21.30;;;8.40;;
77326;SDS011;66399;52.322;20.980;2023-03-01T18:53:29;21.80;;;8.70;;
77326;SDS011;66399;52.322;20.980;2023-03-01T18:57:34;23.70;;;9.60;;
77326;SDS011;66399;52.322;20.980;2023-03-01T19:01:40;27.90;;;10.40;;
77326;SDS011;66399;52.322;20.980;2023-03-01T19:05:46;16.00;;;6.20;;
77326;SDS011;66399;52.322;20.980;2023-03-01T19:09:51;23.30;;;9.40;;
77326;SDS011;66399;52.322;20.980;2023-03-01T19:13:57;16.00;;;6.80;;
77326;SDS011;66399;52.322;20.980;2023-03-01T19:18:02;26.80;;;9.50;;
77326;SDS011;66399;52.322;20.980;2023-03-01T19:22:08;23.70;;;8.70;;
77326;SDS011;66399;52.322;20.980;2023-03-01T19:26:15;23.60;;;8.60;;
77326;SDS011;66399;52.322;20.980;2023-03-01T19:30:20;25.50;;;10.30;;
77326;SDS011;66399;52.322;20.980;2023-03-01T19:34:27;26.80;;;9.60;;
77326;SDS011;66399;52.322;20.980;2023-03-01T19:38:33;23.30;;;9.40;;
77326;SDS011;66399;52.322;20.980;2023-03-01T19:42:38;28.30;;;10.50;;
77326;SDS011;66399;52.322;20.980;2023-03-01T19:46:43;26.30;;;10.10;;
77326;SDS011;66399;52.322;20.980;2023-03-01T19:50:49;28.10;;;9.50;;
77326;SDS011;66399;52.322;20.980;2023-03-01T19:54:55;28.10;;;10.30;;
77326;SDS011;66399;52.322;20.980;2023-03-01T19:59:12;21.90;;;9.10;;
77326;SDS011;66399;52.322;20.980;2023-03-01T20:03:17;22.90;;;9.90;;
77326;SDS011;66399;52.322;20.980;2023-03-01T20:07:23;24.70;;;9.60;;
77326;SDS011;66399;52.322;20.980;2023-03-01T20:11:28;27.80;;;10.00;;
77326;SDS011;66399;52.322;20.980;2023-03-01T20:15:34;26.30;;;10.20;;
77326;SDS011;66399;52.322;20.980;2023-03-01T20:19:40;23.10;;;9.50;;
77326;SDS011;66399;52.322;20.980;2023-03-01T20:23:45;23.90;;;9.50;;
77326;SDS011;66399;52.322;20.980;2023-03-01T20:27:50;25.80;;;10.00;;
77326;SDS011;66399;52.322;20.980;2023-03-01T20:31:56;27.90;;;10.40;;
77326;SDS011;66399;52.322;20.980;2023-03-01T20:36:01;26.10;;;10.90;;
77326;SDS011;66399;52.322;20.980;2023-03-01T20:40:08;28.90;;;9.40;;
77326;SDS011;66399;52.322;20.980;2023-03-01T20:44:14;22.50;;;9.80;;
77326;SDS011;66399;52.322;20.980;2023-03-01T20:48:19;24.20;;;9.90;;
77326;SDS011;66399;52.322;20.980;2023-03-01T20:52:25;23.90;;;10.30;;
77326;SDS011;66399;52.322;20.980;2023-03-01T20:56:37;24.90;;;9.90;;
77326;SDS011;66399;52.322;20.980;2023-03-01T21:00:42;25.70;;;10.50;;
77326;SDS011;66399;52.322;20.980;2023-03-01T21:04:47;28.20;;;10.60;;
77326;SDS011;66399;52.322;20.980;2023-03-01T21:08:54;22.80;;;9.80;;
77326;SDS011;66399;52.322;20.980;2023-03-01T21:12:59;21.60;;;8.10;;
77326;SDS011;66399;52.322;20.980;2023-03-01T21:17:04;28.00;;;10.90;;
77326;SDS011;66399;52.322;20.980;2023-03-01T21:21:10;27.50;;;11.10;;
77326;SDS011;66399;52.322;20.980;2023-03-01T21:25:16;24.90;;;10.60;;
77326;SDS011;66399;52.322;20.980;2023-03-01T21:29:25;22.50;;;9.90;;
77326;SDS011;66399;52.322;20.980;2023-03-01T21:33:44;28.90;;;10.50;;
77326;SDS011;66399;52.322;20.980;2023-03-01T21:37:50;22.10;;;8.60;;
77326;SDS011;66399;52.322;20.980;2023-03-01T21:41:56;27.70;;;10.60;;
77326;SDS011;66399;52.322;20.980;2023-03-01T21:46:02;26.20;;;9.90;;
77326;SDS011;66399;52.322;20.980;2023-03-01T21:50:09;27.50;;;11.50;;
77326;SDS011;66399;52.322;20.980;2023-03-01T21:54:15;25.40;;;10.70;;
77326;SDS011;66399;52.322;20.980;2023-03-01T21:58:21;27.00;;;10.50;;
77326;SDS011;66399;52.322;20.980;2023-03-01T22:02:26;27.20;;;10.80;;
77326;SDS011;66399;52.322;20.980;2023-03-01T22:06:32;27.90;;;10.00;;
77326;SDS011;66399;52.322;20.980;2023-03-01T22:10:41;26.10;;;10.20;;
77326;SDS011;66399;52.322;20.980;2023-03-01T22:14:46;25.50;;;10.90;;
77326;SDS011;66399;52.322;20.980;2023-03-01T22:18:51;27.70;;;11.00;;
77326;SDS011;66399;52.322;20.980;2023-03-01T22:22:57;27.20;;;9.80;;
77326;SDS011;66399;52.322;20.980;2023-03-01T22:27:02;29.80;;;10.80;;
77326;SDS011;66399;52.322;20.980;2023-03-01T22:31:07;27.50;;;10.50;;
77326;SDS011;66399;52.322;20.980;2023-03-01T22:35:13;24.40;;;9.50;;
77326;SDS011;66399;52.322;20.980;2023-03-01T22:39:19;30.00;;;10.70;;
77326;SDS011;66399;52.322;20.980;2023-03-01T22:43:25;23.80;;;10.20;;
77326;SDS011;66399;52.322;20.980;2023-03-01T22:47:31;29.50;;;11.30;;
77326;SDS011;66399;52.322;20.980;2023-03-01T22:51:39;29.80;;;12.30;;
77326;SDS011;66399;52.322;20.980;2023-03-01T22:55:45;42.80;;;14.70;;
77326;SDS011;66399;52.322;20.980;2023-03-01T22:59:50;29.20;;;11.30;;
77326;SDS011;66399;52.322;20.980;2023-03-01T23:03:55;33.70;;;11.80;;
77326;SDS011;66399;52.322;20.980;2023-03-01T23:08:00;35.60;;;12.70;;
77326;SDS011;66399;52.322;20.980;2023-03-01T23:12:06;26.70;;;10.30;;
77326;SDS011;66399;52.322;20.980;2023-03-01T23:16:14;34.10;;;12.50;;
77326;SDS011;66399;52.322;20.980;2023-03-01T23:20:19;37.50;;;13.10;;
77326;SDS011;66399;52.322;20.980;2023-03-01T23:24:25;36.40;;;12.60;;
77326;SDS011;66399;52.322;20.980;2023-03-01T23:28:35;32.50;;;12.80;;
77326;SDS011;66399;52.322;20.980;2023-03-01T23:32:43;34.60;;;12.40;;
77326;SDS011;66399;52.322;20.980;2023-03-01T23:36:49;35.10;;;14.10;;
77326;SDS011;66399;52.322;20.980;2023-03-01T23:40:55;28.50;;;12.60;;
77326;SDS011;66399;52.322;20.980;2023-03-01T23:45:00;64.20;;;23.70;;
77326;SDS011;66399;52.322;20.980;2023-03-01T23:49:05;36.90;;;15.00;;
77326;SDS011;66399;52.322;20.980;2023-03-01T23:53:11;37.60;;;14.00;;
77326;SDS011;66399;52.322;20.980;2023-03-01T23:57:17;40.60;;;16.40;;
